Time;durP1;ratioP1;P1;durP2;ratioP2;P2;SDS_P1;SDS_P2;PMS_P1;PMS_P2;Temp;Humidity;BMP_temperature;BMP_pressure;BME280_temperature;BME280_humidity;BME280_pressure;Samples;Min_cycle;Max_cycle;Signal;HPM_P1;HPM_P2
2023/06/06 00:02:09;;;;;;;4.85;3.70;;;18.50;99.90;;;;;;5093906;28;20310;-76
2023/06/06 00:04:36;;;;;;;3.60;3.28;;;18.50;99.90;;;;;;5088971;28;20708;-77
2023/06/06 00:07:04;;;;;;;4.80;3.53;;;18.50;99.90;;;;;;5073042;28;20206;-75
2023/06/06 00:09:31;;;;;;;3.38;2.70;;;18.40;99.90;;;;;;5072366;28;20306;-77
2023/06/06 00:11:58;;;;;;;4.80;4.15;;;18.30;99.90;;;;;;5072796;28;20682;-76
2023/06/06 00:14:27;;;;;;;5.13;3.92;;;18.30;99.90;;;;;;5072608;28;20241;-77
2023/06/06 00:16:55;;;;;;;3.88;3.45;;;18.10;99.90;;;;;;5073249;28;20206;-77
2023/06/06 00:19:24;;;;;;;4.50;3.88;;;18.20;99.90;;;;;;5072737;28;20234;-77
2023/06/06 00:21:51;;;;;;;5.05;3.42;;;18.10;99.90;;;;;;5072567;28;20654;-77
2023/06/06 00:24:19;;;;;;;4.63;4.10;;;18.00;99.90;;;;;;5072358;28;20259;-77
2023/06/06 00:26:45;;;;;;;4.93;3.95;;;18.20;99.90;;;;;;5072438;28;20297;-75
2023/06/06 00:29:12;;;;;;;5.15;4.05;;;18.30;99.90;;;;;;5072600;28;20623;-75
2023/06/06 00:31:39;;;;;;;6.30;3.95;;;18.30;99.90;;;;;;5072712;28;20241;-75
2023/06/06 00:34:06;;;;;;;3.88;3.40;;;18.40;99.90;;;;;;5072510;28;20250;-78
2023/06/06 00:36:34;;;;;;;5.13;4.57;;;18.20;99.90;;;;;;5071970;28;20670;-75
2023/06/06 00:39:01;;;;;;;5.68;4.10;;;18.20;99.90;;;;;;5072216;28;20232;-75
2023/06/06 00:41:28;;;;;;;4.38;3.67;;;18.20;99.90;;;;;;5072151;28;20202;-74
2023/06/06 00:43:55;;;;;;;5.05;4.35;;;18.30;99.90;;;;;;5072282;28;20272;-74
2023/06/06 00:46:22;;;;;;;5.75;4.25;;;18.30;99.90;;;;;;5072230;28;20241;-75
2023/06/06 00:48:51;;;;;;;4.85;4.45;;;18.30;99.90;;;;;;5070575;28;20241;-70
2023/06/06 00:51:18;;;;;;;5.30;4.38;;;18.10;99.90;;;;;;5079836;28;20208;-75
2023/06/06 00:53:46;;;;;;;4.63;4.22;;;18.00;99.90;;;;;;5078993;28;20634;-75
2023/06/06 00:56:14;;;;;;;5.63;4.97;;;18.00;99.90;;;;;;5078770;28;20645;-75
2023/06/06 00:58:42;;;;;;;9.73;4.47;;;18.10;99.90;;;;;;5072210;28;20684;-76
2023/06/06 01:01:10;;;;;;;6.25;4.18;;;18.10;99.90;;;;;;5072221;28;20238;-75
2023/06/06 01:03:40;;;;;;;5.45;4.13;;;18.00;99.90;;;;;;5071871;28;20249;-76
2023/06/06 01:06:08;;;;;;;5.32;3.95;;;18.00;99.90;;;;;;5071674;28;20198;-75
2023/06/06 01:08:36;;;;;;;4.35;3.50;;;18.00;99.90;;;;;;5071565;28;20633;-75
2023/06/06 01:11:13;;;;;;;5.05;4.50;;;18.00;99.90;;;;;;5086142;28;20214;-75
2023/06/06 01:13:51;;;;;;;6.40;4.32;;;18.00;99.90;;;;;;5085018;28;20201;-76
2023/06/06 01:16:20;;;;;;;5.35;3.95;;;18.00;99.90;;;;;;5091549;28;20262;-75
2023/06/06 01:18:49;;;;;;;3.60;3.30;;;18.00;99.90;;;;;;5091700;28;20210;-75
2023/06/06 01:21:17;;;;;;;5.45;4.13;;;17.90;99.90;;;;;;5091325;28;20206;-76
2023/06/06 01:23:46;;;;;;;4.32;3.92;;;17.70;99.90;;;;;;5083493;28;20782;-78
2023/06/06 01:26:12;;;;;;;5.07;4.20;;;17.70;99.90;;;;;;5071182;28;20619;-77
2023/06/06 01:28:40;;;;;;;5.70;3.42;;;17.80;99.90;;;;;;5057990;28;20674;-78
2023/06/06 01:31:12;;;;;;;5.82;4.47;;;17.80;99.90;;;;;;5071778;28;20252;-74
2023/06/06 01:33:44;;;;;;;4.78;4.28;;;17.70;99.90;;;;;;5071126;28;20218;-74
2023/06/06 01:36:20;;;;;;;5.97;3.80;;;17.70;99.90;;;;;;5071471;28;20693;-75
2023/06/06 01:38:52;;;;;;;5.45;4.43;;;17.70;99.90;;;;;;5071258;28;20210;-78
2023/06/06 01:41:20;;;;;;;7.20;4.15;;;17.80;99.90;;;;;;5070743;28;20206;-76
2023/06/06 01:43:51;;;;;;;4.15;3.75;;;17.80;99.90;;;;;;5071025;28;20271;-77
2023/06/06 01:46:19;;;;;;;4.65;3.13;;;17.80;99.90;;;;;;5070733;28;20584;-79
2023/06/06 01:48:47;;;;;;;5.78;4.60;;;17.70;99.90;;;;;;5070907;28;20206;-76
2023/06/06 01:51:14;;;;;;;8.23;4.35;;;17.70;99.90;;;;;;5070502;28;20647;-76
2023/06/06 01:53:41;;;;;;;4.82;3.72;;;17.70;99.90;;;;;;5071279;28;20252;-75
2023/06/06 01:56:13;;;;;;;4.13;3.72;;;17.80;99.90;;;;;;5071256;28;20202;-73
2023/06/06 01:58:41;;;;;;;4.13;3.72;;;17.70;99.90;;;;;;5070892;28;20214;-74
2023/06/06 02:01:08;;;;;;;5.18;4.13;;;17.70;99.90;;;;;;5071447;28;20198;-76
2023/06/06 02:03:36;;;;;;;6.25;4.15;;;17.60;99.90;;;;;;5070306;28;20325;-72
2023/06/06 02:06:03;;;;;;;5.75;3.80;;;17.50;99.90;;;;;;5070680;28;20210;-75
2023/06/06 02:08:30;;;;;;;6.47;5.15;;;17.50;99.90;;;;;;5070416;28;20206;-75
2023/06/06 02:10:57;;;;;;;5.80;3.90;;;17.50;99.90;;;;;;5070612;28;20268;-75
2023/06/06 02:13:26;;;;;;;5.65;4.20;;;17.40;99.90;;;;;;5070615;28;20267;-74
2023/06/06 02:15:53;;;;;;;4.53;3.50;;;17.40;99.90;;;;;;5070513;28;20699;-79
2023/06/06 02:18:20;;;;;;;7.30;4.28;;;17.40;99.90;;;;;;5070167;28;20236;-80
2023/06/06 02:20:47;;;;;;;4.65;3.88;;;17.40;99.90;;;;;;5070562;28;20210;-77
2023/06/06 02:23:14;;;;;;;8.27;4.55;;;17.50;99.90;;;;;;5070995;28;20260;-83
2023/06/06 02:25:42;;;;;;;7.03;4.60;;;17.50;99.90;;;;;;5071605;28;20263;-78
2023/06/06 02:28:11;;;;;;;6.97;5.05;;;17.50;99.90;;;;;;5070627;28;20221;-72
2023/06/06 02:30:39;;;;;;;6.80;5.15;;;17.40;99.90;;;;;;5070789;28;20300;-80
2023/06/06 02:33:07;;;;;;;4.32;3.92;;;17.40;99.90;;;;;;5070175;28;20210;-80
2023/06/06 02:35:34;;;;;;;5.00;3.80;;;17.40;99.90;;;;;;5070643;28;20492;-73
2023/06/06 02:38:01;;;;;;;5.93;3.65;;;17.50;99.90;;;;;;5070295;28;20233;-76
2023/06/06 02:40:28;;;;;;;4.47;4.13;;;17.40;99.90;;;;;;5070329;28;20233;-78
2023/06/06 02:42:55;;;;;;;4.85;4.43;;;17.30;99.90;;;;;;5070221;28;20261;-77
2023/06/06 02:45:22;;;;;;;9.23;5.63;;;17.30;99.90;;;;;;5070190;28;20245;-75
2023/06/06 02:47:51;;;;;;;5.50;3.92;;;17.30;99.90;;;;;;5070204;28;20248;-76
2023/06/06 02:50:19;;;;;;;4.30;3.30;;;17.30;99.90;;;;;;5069747;28;20233;-74
2023/06/06 02:52:46;;;;;;;4.65;3.42;;;17.30;99.90;;;;;;5070306;28;20202;-76
2023/06/06 02:55:13;;;;;;;5.47;4.85;;;17.20;99.90;;;;;;5070249;28;20279;-76
2023/06/06 02:57:40;;;;;;;7.05;4.53;;;17.20;99.90;;;;;;5070688;28;20203;-76
2023/06/06 03:00:08;;;;;;;4.22;3.83;;;17.10;99.90;;;;;;5070221;28;20256;-75
2023/06/06 03:02:36;;;;;;;7.22;5.25;;;17.20;99.90;;;;;;5071828;28;20220;-76
2023/06/06 03:05:06;;;;;;;5.57;4.32;;;17.10;99.90;;;;;;5074183;28;20213;-76
2023/06/06 03:07:32;;;;;;;4.40;3.95;;;17.10;99.90;;;;;;5074015;28;20206;-75
2023/06/06 03:09:59;;;;;;;3.92;3.50;;;17.10;99.90;;;;;;5074437;28;20210;-74
2023/06/06 03:12:26;;;;;;;6.15;4.53;;;17.10;99.90;;;;;;5073805;28;20242;-72
2023/06/06 03:14:53;;;;;;;5.75;4.20;;;17.20;99.90;;;;;;5074147;28;20245;-75
2023/06/06 03:17:20;;;;;;;6.15;4.53;;;17.20;99.90;;;;;;5073239;28;20238;-71
2023/06/06 03:19:48;;;;;;;4.43;3.83;;;17.20;99.90;;;;;;5074096;28;20248;-74
2023/06/06 03:22:17;;;;;;;4.90;4.22;;;17.20;99.90;;;;;;5073856;28;20241;-72
2023/06/06 03:24:46;;;;;;;7.47;4.20;;;17.20;99.90;;;;;;5073557;28;20270;-77
2023/06/06 03:27:14;;;;;;;6.13;3.97;;;17.20;99.90;;;;;;5073837;28;20217;-75
2023/06/06 03:29:41;;;;;;;7.43;5.18;;;17.20;99.90;;;;;;5073927;28;20674;-73
2023/06/06 03:32:09;;;;;;;5.75;3.60;;;17.20;99.90;;;;;;5073830;28;20245;-77
2023/06/06 03:34:36;;;;;;;7.20;4.50;;;17.10;99.90;;;;;;5072991;28;20222;-75
2023/06/06 03:37:03;;;;;;;4.85;4.10;;;17.10;99.90;;;;;;5073908;28;20689;-79
2023/06/06 03:39:31;;;;;;;4.45;3.42;;;17.10;99.90;;;;;;5073207;28;20283;-79
2023/06/06 03:41:58;;;;;;;4.80;3.33;;;17.00;99.90;;;;;;5073604;28;20237;-77
2023/06/06 03:44:25;;;;;;;5.57;3.90;;;17.00;99.90;;;;;;5072899;28;20273;-75
2023/06/06 03:46:52;;;;;;;4.35;3.70;;;16.90;99.90;;;;;;5073348;28;20233;-77
2023/06/06 03:49:19;;;;;;;5.03;3.72;;;16.90;99.90;;;;;;5073129;28;20241;-77
2023/06/06 03:51:46;;;;;;;4.90;3.90;;;16.80;99.90;;;;;;5073302;28;20249;-77
2023/06/06 03:54:13;;;;;;;6.00;4.95;;;16.80;99.90;;;;;;5073287;28;20655;-77
2023/06/06 03:56:42;;;;;;;11.45;4.57;;;16.70;99.90;;;;;;5073445;28;20210;-74
2023/06/06 03:59:11;;;;;;;6.07;4.43;;;16.70;99.90;;;;;;5073225;28;20209;-76
2023/06/06 04:01:40;;;;;;;8.02;4.90;;;16.70;99.90;;;;;;5073317;28;20583;-74
2023/06/06 04:04:08;;;;;;;7.95;4.32;;;16.70;99.90;;;;;;5073240;28;20338;-73
2023/06/06 04:06:35;;;;;;;7.88;3.97;;;16.70;99.90;;;;;;5072716;28;20210;-72
2023/06/06 04:09:03;;;;;;;6.57;3.47;;;16.60;99.90;;;;;;5073120;28;20221;-73
2023/06/06 04:11:29;;;;;;;6.65;4.40;;;16.50;99.90;;;;;;5072546;28;20198;-73
2023/06/06 04:13:58;;;;;;;6.50;3.53;;;16.60;15.90;;;;;;5071796;28;20241;-73
2023/06/06 04:16:25;;;;;;;6.90;4.03;;;16.70;1.00;;;;;;5072808;28;20378;-78
2023/06/06 04:18:52;;;;;;;9.13;3.85;;;16.70;99.90;;;;;;5072991;28;20298;-76
2023/06/06 04:21:19;;;;;;;8.18;3.83;;;16.70;1.00;;;;;;5072272;28;20202;-75
2023/06/06 04:23:47;;;;;;;4.63;3.47;;;16.60;1.00;;;;;;5072650;28;20739;-75
2023/06/06 04:26:23;;;;;;;5.32;4.05;;;16.60;99.90;;;;;;5070202;28;20198;-74
2023/06/06 04:28:52;;;;;;;5.07;3.55;;;16.60;1.00;;;;;;5072367;28;20585;-75
2023/06/06 04:31:21;;;;;;;6.10;4.20;;;16.70;1.00;;;;;;5071417;28;20293;-75
2023/06/06 04:33:53;;;;;;;5.00;3.28;;;16.70;1.00;;;;;;5072383;28;20327;-76
2023/06/06 04:36:21;;;;;;;4.90;3.90;;;16.80;1.00;;;;;;5071965;28;20206;-74
2023/06/06 04:38:49;;;;;;;3.88;3.45;;;16.80;99.90;;;;;;5072430;28;20584;-75
2023/06/06 04:41:16;;;;;;;6.63;3.75;;;16.80;1.00;;;;;;5091241;28;20301;-75
2023/06/06 04:43:44;;;;;;;8.95;4.75;;;16.90;99.90;;;;;;5074476;28;20227;-76
2023/06/06 04:46:11;;;;;;;6.05;3.80;;;16.90;1.00;;;;;;5071342;28;20217;-75
2023/06/06 04:48:39;;;;;;;5.22;3.25;;;16.80;98.70;;;;;;5072170;28;20293;-75
2023/06/06 04:51:08;;;;;;;5.13;4.40;;;16.80;1.00;;;;;;5071874;28;20240;-77
2023/06/06 04:53:44;;;;;;;5.30;4.50;;;16.70;99.90;;;;;;5071464;28;20321;-76
2023/06/06 04:56:12;;;;;;;5.07;4.68;;;16.70;1.00;;;;;;5083130;28;20201;-77
2023/06/06 04:58:41;;;;;;;7.00;4.00;;;16.70;1.00;;;;;;5076932;28;20206;-76
2023/06/06 05:01:10;;;;;;;5.22;4.30;;;16.60;99.90;;;;;;5071999;28;20210;-77
2023/06/06 05:03:39;;;;;;;5.10;3.88;;;16.70;1.00;;;;;;5071402;28;20233;-77
2023/06/06 05:06:06;;;;;;;6.95;4.68;;;16.80;99.90;;;;;;5071846;28;20198;-75
2023/06/06 05:08:35;;;;;;;5.05;4.55;;;16.80;1.00;;;;;;5071522;28;20210;-75
2023/06/06 05:11:02;;;;;;;6.60;4.40;;;16.90;99.90;;;;;;5071795;28;20233;-76
2023/06/06 05:13:29;;;;;;;8.25;4.47;;;17.00;1.00;;;;;;5070906;28;20233;-74
2023/06/06 05:15:56;;;;;;;6.05;4.82;;;17.00;1.00;;;;;;5071557;28;20651;-75
2023/06/06 05:18:24;;;;;;;7.60;4.55;;;17.00;99.90;;;;;;5071163;28;20230;-76
2023/06/06 05:20:52;;;;;;;11.73;4.85;;;17.10;1.00;;;;;;5066060;28;20256;-75
2023/06/06 05:23:19;;;;;;;5.65;4.00;;;17.20;99.90;;;;;;5071017;28;20559;-74
2023/06/06 05:25:46;;;;;;;4.50;4.07;;;17.20;1.00;;;;;;5070470;28;20244;-76
2023/06/06 05:28:13;;;;;;;4.10;3.70;;;17.20;1.00;;;;;;5077513;28;20245;-73
2023/06/06 05:30:40;;;;;;;9.43;4.53;;;17.30;1.00;;;;;;5062303;28;20202;-74
2023/06/06 05:33:08;;;;;;;4.53;4.13;;;17.20;1.00;;;;;;5067644;28;20268;-76
2023/06/06 05:35:35;;;;;;;5.97;3.65;;;17.30;1.00;;;;;;5062596;28;20724;-75
2023/06/06 05:38:03;;;;;;;6.00;4.88;;;17.30;1.00;;;;;;5070277;28;20267;-76
2023/06/06 05:40:30;;;;;;;5.40;4.40;;;17.30;1.00;;;;;;5089249;28;20297;-76
2023/06/06 05:42:57;;;;;;;6.72;4.10;;;17.40;1.00;;;;;;5090361;28;20684;-73
2023/06/06 05:45:24;;;;;;;7.97;4.00;;;17.30;1.00;;;;;;5090840;28;20283;-76
2023/06/06 05:47:51;;;;;;;5.15;3.72;;;17.40;1.00;;;;;;5091341;28;20290;-72
2023/06/06 05:50:18;;;;;;;8.23;4.03;;;17.50;1.00;;;;;;5090721;28;20209;-72
2023/06/06 05:52:45;;;;;;;4.88;4.00;;;17.50;1.00;;;;;;5089272;28;20296;-78
2023/06/06 05:55:27;;;;;;;5.72;4.40;;;17.50;1.00;;;;;;5089948;28;20641;-73
2023/06/06 05:57:55;;;;;;;4.20;3.53;;;17.50;1.00;;;;;;5081872;28;20669;-73
2023/06/06 06:00:23;;;;;;;4.85;3.70;;;17.50;1.00;;;;;;5069466;28;20206;-78
2023/06/06 06:02:51;;;;;;;4.47;4.07;;;17.50;1.00;;;;;;5070223;28;20202;-72
2023/06/06 06:05:18;;;;;;;9.40;4.18;;;17.50;1.00;;;;;;5078284;28;20282;-71
2023/06/06 06:07:47;;;;;;;7.53;3.83;;;17.50;1.00;;;;;;5067233;28;20206;-73
2023/06/06 06:10:15;;;;;;;6.15;4.80;;;17.50;1.00;;;;;;5075655;28;20300;-79
2023/06/06 06:12:43;;;;;;;4.75;3.47;;;17.50;99.90;;;;;;5079239;28;20239;-72
2023/06/06 06:15:11;;;;;;;4.78;4.18;;;17.40;99.90;;;;;;5080775;28;20210;-73
2023/06/06 06:17:38;;;;;;;8.85;4.32;;;17.50;99.90;;;;;;5071522;28;20250;-73
2023/06/06 06:20:08;;;;;;;3.78;3.47;;;17.60;99.90;;;;;;5065575;28;20234;-82
2023/06/06 06:22:36;;;;;;;4.63;4.20;;;17.70;99.90;;;;;;5064466;28;20218;-72
2023/06/06 06:25:04;;;;;;;4.95;4.40;;;17.80;99.90;;;;;;5068020;28;20610;-82
2023/06/06 06:27:32;;;;;;;5.03;4.32;;;17.90;99.90;;;;;;5064351;28;20213;-79
2023/06/06 06:30:01;;;;;;;4.57;4.13;;;18.00;99.90;;;;;;5070353;28;20239;-74
2023/06/06 06:32:28;;;;;;;5.75;4.32;;;18.00;99.90;;;;;;5064239;28;20206;-72
2023/06/06 06:34:55;;;;;;;4.72;4.32;;;18.10;99.90;;;;;;5062314;28;20665;-76
2023/06/06 06:37:23;;;;;;;8.75;4.70;;;18.10;99.90;;;;;;5087607;28;20201;-77
2023/06/06 06:39:50;;;;;;;6.93;5.40;;;18.20;99.90;;;;;;5090552;28;20205;-76
2023/06/06 06:42:17;;;;;;;6.10;4.32;;;18.30;99.90;;;;;;5090169;28;20296;-81
2023/06/06 06:44:45;;;;;;;6.45;5.43;;;18.40;99.90;;;;;;5090708;28;20225;-78
2023/06/06 06:47:12;;;;;;;7.20;5.57;;;18.60;99.90;;;;;;5090746;28;20241;-76
2023/06/06 06:49:41;;;;;;;8.23;5.43;;;18.80;99.90;;;;;;5068304;28;20685;-78
2023/06/06 06:52:11;;;;;;;9.00;5.13;;;18.80;99.90;;;;;;5083589;28;20206;-80
2023/06/06 06:54:46;;;;;;;5.97;4.80;;;18.80;99.90;;;;;;5089732;28;20672;-78
2023/06/06 06:57:13;;;;;;;5.97;4.75;;;19.00;99.90;;;;;;5084898;28;20281;-77
2023/06/06 06:59:41;;;;;;;5.20;4.70;;;19.20;99.90;;;;;;5060890;28;20212;-78
2023/06/06 07:02:10;;;;;;;5.18;4.32;;;19.30;99.90;;;;;;5066395;28;20241;-77
2023/06/06 07:04:39;;;;;;;5.82;5.22;;;19.30;99.90;;;;;;5069559;28;20303;-79
2023/06/06 07:07:06;;;;;;;5.20;3.92;;;19.40;99.90;;;;;;5070400;28;20202;-77
2023/06/06 07:09:33;;;;;;;6.40;5.18;;;19.50;99.90;;;;;;5069517;28;20233;-78
2023/06/06 07:12:00;;;;;;;7.60;4.45;;;19.60;99.90;;;;;;5070009;28;20233;-78
2023/06/06 07:14:28;;;;;;;6.15;4.18;;;19.80;99.90;;;;;;5069479;28;20248;-78
2023/06/06 07:16:56;;;;;;;5.18;3.92;;;19.90;99.90;;;;;;5069931;28;20289;-78
2023/06/06 07:19:26;;;;;;;4.82;4.32;;;20.20;99.90;;;;;;5069290;28;20202;-77
2023/06/06 07:21:54;;;;;;;4.97;3.38;;;20.20;99.90;;;;;;5069650;28;20213;-77
2023/06/06 07:24:21;;;;;;;5.20;4.03;;;20.20;99.90;;;;;;5069107;28;20317;-77
2023/06/06 07:26:51;;;;;;;5.35;4.00;;;20.30;99.90;;;;;;5069895;28;20237;-77
2023/06/06 07:29:19;;;;;;;4.82;3.53;;;20.70;99.90;;;;;;5069411;28;20203;-76
2023/06/06 07:31:46;;;;;;;4.05;3.63;;;20.80;99.90;;;;;;5069768;28;20221;-76
2023/06/06 07:34:12;;;;;;;4.63;3.75;;;20.90;99.90;;;;;;5064513;28;20242;-77
2023/06/06 07:36:41;;;;;;;3.60;3.30;;;21.10;99.90;;;;;;5069498;28;20713;-76
2023/06/06 07:39:08;;;;;;;4.70;3.67;;;21.50;99.90;;;;;;5069836;28;20237;-76
2023/06/06 07:41:35;;;;;;;6.78;3.88;;;21.30;99.90;;;;;;5069341;28;20682;-76
2023/06/06 07:44:02;;;;;;;5.25;3.90;;;21.40;99.90;;;;;;5066629;28;20221;-76
2023/06/06 07:46:29;;;;;;;3.55;3.00;;;21.40;99.90;;;;;;5069119;28;20709;-76
2023/06/06 07:48:56;;;;;;;3.65;2.88;;;21.20;99.90;;;;;;5070823;28;20238;-76
2023/06/06 07:51:23;;;;;;;3.83;3.15;;;21.30;99.90;;;;;;5067064;28;20237;-76
2023/06/06 07:53:52;;;;;;;4.38;3.97;;;21.50;99.90;;;;;;5067821;28;20241;-76
2023/06/06 07:56:20;;;;;;;3.45;2.60;;;21.80;99.90;;;;;;5072632;28;20264;-76
2023/06/06 07:58:52;;;;;;;6.18;3.35;;;22.20;99.90;;;;;;5072933;28;20685;-77
2023/06/06 08:01:20;;;;;;;2.92;2.63;;;22.70;99.90;;;;;;5072922;28;20207;-77
2023/06/06 08:03:49;;;;;;;4.20;3.22;;;22.60;99.90;;;;;;5073118;28;20210;-76
2023/06/06 08:06:17;;;;;;;4.22;3.30;;;23.00;99.90;;;;;;5072542;28;20269;-78
2023/06/06 08:08:48;;;;;;;3.03;2.83;;;22.80;99.90;;;;;;5073066;28;20682;-78
2023/06/06 08:11:17;;;;;;;3.42;3.13;;;22.50;99.90;;;;;;5068515;28;20226;-79
2023/06/06 08:13:44;;;;;;;3.65;3.05;;;22.40;99.90;;;;;;5069255;28;20214;-77
2023/06/06 08:16:11;;;;;;;3.67;3.17;;;22.70;99.90;;;;;;5074594;28;20249;-80
2023/06/06 08:18:39;;;;;;;3.58;3.28;;;24.00;99.90;;;;;;5073304;28;20335;-76
2023/06/06 08:21:06;;;;;;;3.08;2.83;;;23.70;99.90;;;;;;5089255;28;20205;-79
2023/06/06 08:23:33;;;;;;;2.97;2.78;;;23.40;99.90;;;;;;5076969;28;20260;-76
2023/06/06 08:26:01;;;;;;;6.00;3.50;;;24.40;99.90;;;;;;5072231;28;20287;-80
2023/06/06 08:28:30;;;;;;;6.10;3.28;;;23.70;99.90;;;;;;5071157;28;20260;-80
2023/06/06 08:30:57;;;;;;;4.05;3.20;;;23.50;99.90;;;;;;5061392;28;20705;-81
2023/06/06 08:33:24;;;;;;;3.00;2.70;;;23.30;99.90;;;;;;5071991;28;20271;-81
2023/06/06 08:35:51;;;;;;;5.22;3.25;;;23.30;99.90;;;;;;5071960;28;20253;-78
2023/06/06 08:38:18;;;;;;;3.88;2.83;;;23.40;99.90;;;;;;5071998;28;20198;-77
2023/06/06 08:40:45;;;;;;;5.60;3.20;;;23.50;99.90;;;;;;5072601;28;20233;-80
2023/06/06 08:43:15;;;;;;;3.88;3.58;;;23.70;99.90;;;;;;5072140;28;20306;-77
2023/06/06 08:45:48;;;;;;;3.28;2.67;;;24.00;99.90;;;;;;5072430;28;20295;-84
2023/06/06 08:48:17;;;;;;;2.67;2.47;;;24.10;99.90;;;;;;5067246;28;20228;-78
2023/06/06 08:50:45;;;;;;;3.15;2.95;;;24.90;99.90;;;;;;5072057;28;20238;-76
2023/06/06 08:53:15;;;;;;;3.67;3.38;;;25.40;99.90;;;;;;5071912;28;20670;-79
2023/06/06 08:55:42;;;;;;;2.90;2.67;;;25.30;99.90;;;;;;5069146;28;20649;-81
2023/06/06 08:58:12;;;;;;;5.45;2.67;;;25.20;99.90;;;;;;5069091;28;22227;-77
2023/06/06 09:00:39;;;;;;;3.35;3.08;;;25.10;99.90;;;;;;5058133;28;20305;-77
2023/06/06 09:03:08;;;;;;;2.85;2.50;;;25.10;99.90;;;;;;5064145;28;20652;-77
2023/06/06 09:05:38;;;;;;;3.42;2.95;;;25.30;99.90;;;;;;5071798;28;20874;-75
2023/06/06 09:08:06;;;;;;;3.05;2.85;;;25.60;99.90;;;;;;5071272;28;20263;-76
2023/06/06 09:10:33;;;;;;;3.30;3.00;;;25.30;99.90;;;;;;5074401;28;21121;-74
2023/06/06 09:13:00;;;;;;;3.50;2.85;;;25.50;99.90;;;;;;5091958;28;20237;-76
2023/06/06 09:15:27;;;;;;;3.92;3.05;;;27.50;99.90;;;;;;5091345;28;20673;-75
2023/06/06 09:17:55;;;;;;;3.60;3.30;;;26.80;99.90;;;;;;5091956;28;20205;-75
2023/06/06 09:20:24;;;;;;;3.58;3.33;;;26.50;99.90;;;;;;5089753;28;20434;-74
2023/06/06 09:22:51;;;;;;;7.88;3.38;;;25.80;99.90;;;;;;5062164;28;20616;-75
2023/06/06 09:25:20;;;;;;;2.65;2.45;;;26.00;99.90;;;;;;5089747;28;20256;-74
2023/06/06 09:27:47;;;;;;;2.97;2.78;;;25.90;99.90;;;;;;5089821;28;20233;-75
2023/06/06 09:30:21;;;;;;;3.45;2.75;;;25.80;99.90;;;;;;5090009;28;20275;-74
2023/06/06 09:32:53;;;;;;;2.33;2.17;;;26.80;99.90;;;;;;5090059;28;20213;-75
2023/06/06 09:35:20;;;;;;;2.92;2.70;;;27.20;99.90;;;;;;5090960;28;20211;-74
2023/06/06 09:37:48;;;;;;;3.20;2.90;;;27.50;99.90;;;;;;5091739;28;20208;-74
2023/06/06 09:40:17;;;;;;;3.47;3.22;;;27.00;99.90;;;;;;5091065;28;20677;-74
2023/06/06 09:42:46;;;;;;;2.85;2.65;;;27.20;99.90;;;;;;5091347;28;20685;-77
2023/06/06 09:45:15;;;;;;;3.03;2.83;;;26.20;99.90;;;;;;5091002;28;20778;-75
2023/06/06 09:47:43;;;;;;;3.17;2.70;;;25.70;99.90;;;;;;5085948;28;20242;-74
2023/06/06 09:50:11;;;;;;;3.28;2.97;;;25.90;99.90;;;;;;5085538;28;20258;-73
2023/06/06 09:52:39;;;;;;;3.75;3.38;;;25.40;99.90;;;;;;5091306;28;20293;-74
2023/06/06 09:55:13;;;;;;;2.65;2.47;;;25.30;99.90;;;;;;5091158;28;20213;-74
2023/06/06 09:57:42;;;;;;;3.45;3.15;;;25.20;99.90;;;;;;5085427;28;20239;-74
2023/06/06 10:00:12;;;;;;;5.93;3.55;;;24.90;99.90;;;;;;5078302;28;20286;-74
2023/06/06 10:02:45;;;;;;;3.25;2.95;;;25.00;99.90;;;;;;5091113;28;20227;-74
2023/06/06 10:05:13;;;;;;;3.80;3.15;;;25.00;99.90;;;;;;5091273;28;20233;-74
2023/06/06 10:07:45;;;;;;;4.35;3.00;;;25.00;99.90;;;;;;5091130;28;20206;-74
2023/06/06 10:10:15;;;;;;;3.53;3.22;;;24.90;99.90;;;;;;5090989;28;20205;-74
2023/06/06 10:12:43;;;;;;;4.47;4.07;;;25.10;99.90;;;;;;5090994;28;20282;-76
2023/06/06 10:15:11;;;;;;;3.92;3.60;;;25.20;99.90;;;;;;5091223;28;20212;-73
2023/06/06 10:17:40;;;;;;;3.13;2.83;;;25.30;99.90;;;;;;5090732;28;20272;-74
2023/06/06 10:20:09;;;;;;;3.53;2.95;;;25.30;99.90;;;;;;5090904;28;20677;-75
2023/06/06 10:22:37;;;;;;;4.32;4.00;;;25.60;99.90;;;;;;5067659;28;20216;-73
2023/06/06 10:25:06;;;;;;;4.45;3.72;;;26.00;99.90;;;;;;5070140;28;20226;-74
2023/06/06 10:27:47;;;;;;;3.42;3.10;;;26.40;99.90;;;;;;5077059;28;20213;-72
2023/06/06 10:30:24;;;;;;;4.15;3.58;;;26.70;99.90;;;;;;5062140;28;20264;-73
2023/06/06 10:33:01;;;;;;;3.08;2.88;;;26.50;99.90;;;;;;5061214;28;20218;-75
2023/06/06 10:35:29;;;;;;;3.70;3.40;;;26.20;99.90;;;;;;5059651;28;20202;-76
2023/06/06 10:38:04;;;;;;;3.38;3.08;;;25.70;99.90;;;;;;5090276;28;20205;-76
2023/06/06 10:40:49;;;;;;;5.75;3.92;;;25.90;99.90;;;;;;5071727;28;20248;-74
2023/06/06 10:43:20;;;;;;;9.45;4.78;;;25.90;99.90;;;;;;5061571;28;20209;-74
2023/06/06 10:45:51;;;;;;;6.97;4.32;;;25.60;99.90;;;;;;5067725;28;20314;-75
2023/06/06 10:48:28;;;;;;;4.13;3.55;;;25.60;99.90;;;;;;5060683;28;20755;-76
2023/06/06 10:50:55;;;;;;;5.30;4.80;;;25.70;99.90;;;;;;5071720;28;20244;-75
2023/06/06 10:53:22;;;;;;;4.38;3.95;;;25.70;99.90;;;;;;5064568;28;20756;-74
2023/06/06 10:55:49;;;;;;;3.90;3.60;;;25.80;99.90;;;;;;5064871;28;20249;-74
2023/06/06 10:58:24;;;;;;;4.82;4.38;;;26.40;99.90;;;;;;5059408;28;20238;-74
2023/06/06 11:00:58;;;;;;;5.53;3.75;;;26.90;99.90;;;;;;5060810;28;20227;-75
2023/06/06 11:03:34;;;;;;;4.30;3.45;;;26.50;99.90;;;;;;5055609;28;20242;-75
2023/06/06 11:06:20;;;;;;;4.55;4.25;;;26.50;99.90;;;;;;5061126;28;20887;-75
2023/06/06 11:08:49;;;;;;;6.60;3.65;;;26.70;99.90;;;;;;5060975;28;20214;-75
2023/06/06 11:11:29;;;;;;;3.60;3.30;;;26.80;99.90;;;;;;5066766;28;20206;-75
2023/06/06 11:13:59;;;;;;;5.10;3.85;;;26.80;99.90;;;;;;5066241;28;20693;-75
2023/06/06 11:17:10;;;;;;;4.60;3.78;;;26.50;99.90;;;;;;5069077;28;20210;-75
2023/06/06 11:19:43;;;;;;;3.85;3.50;;;26.70;99.90;;;;;;5069881;28;20234;-75
2023/06/06 11:22:21;;;;;;;3.75;3.45;;;26.00;99.90;;;;;;5070336;28;20213;-74
2023/06/06 11:24:48;;;;;;;4.63;4.22;;;26.00;99.90;;;;;;5085717;28;20201;-75
2023/06/06 11:27:17;;;;;;;4.03;3.65;;;26.00;99.90;;;;;;5068316;28;20266;-75
2023/06/06 11:29:46;;;;;;;4.88;4.30;;;25.70;99.90;;;;;;5070140;28;20241;-74
2023/06/06 11:32:14;;;;;;;6.10;3.90;;;25.70;99.90;;;;;;5060325;28;20779;-74
2023/06/06 11:34:42;;;;;;;4.32;3.92;;;25.70;99.90;;;;;;5060482;28;20686;-74
2023/06/06 11:37:09;;;;;;;4.70;4.38;;;25.70;99.90;;;;;;5059914;28;20653;-77
2023/06/06 11:39:37;;;;;;;7.32;4.63;;;25.40;99.90;;;;;;5063486;28;20246;-75
2023/06/06 11:42:05;;;;;;;3.38;3.08;;;25.60;99.90;;;;;;5063608;28;20228;-77
2023/06/06 11:44:35;;;;;;;4.05;3.75;;;25.70;99.90;;;;;;5065780;28;20585;-75
2023/06/06 11:47:08;;;;;;;4.65;4.25;;;25.70;99.90;;;;;;5068240;28;20237;-75
2023/06/06 11:49:46;;;;;;;9.35;4.93;;;25.80;99.90;;;;;;5061940;28;20305;-76
2023/06/06 11:52:14;;;;;;;3.95;3.65;;;25.90;99.90;;;;;;5072252;28;20202;-77
2023/06/06 11:54:52;;;;;;;3.97;3.58;;;25.90;99.90;;;;;;5063338;28;20213;-76
2023/06/06 11:57:18;;;;;;;4.20;3.70;;;26.20;99.90;;;;;;5072049;28;20201;-76
2023/06/06 11:59:53;;;;;;;4.13;3.70;;;26.60;99.90;;;;;;5062826;28;20237;-75
2023/06/06 12:02:22;;;;;;;3.85;3.55;;;26.80;99.90;;;;;;5071283;28;20202;-76
2023/06/06 12:04:49;;;;;;;4.55;3.63;;;26.80;99.90;;;;;;5064613;28;20202;-74
2023/06/06 12:07:16;;;;;;;4.22;3.58;;;26.30;99.90;;;;;;5062427;28;20278;-77
2023/06/06 12:09:43;;;;;;;3.65;3.40;;;26.20;99.90;;;;;;5060747;28;20241;-77
2023/06/06 12:12:13;;;;;;;3.95;3.65;;;26.20;99.90;;;;;;5062739;28;20230;-76
2023/06/06 12:14:40;;;;;;;5.38;4.32;;;26.30;99.90;;;;;;5061130;28;20260;-77
2023/06/06 12:17:08;;;;;;;5.07;3.80;;;26.10;99.90;;;;;;5064729;28;20273;-78
2023/06/06 12:19:37;;;;;;;3.90;3.53;;;26.40;99.90;;;;;;5065575;28;20738;-77
2023/06/06 12:22:04;;;;;;;5.25;4.05;;;26.40;99.90;;;;;;5072294;28;20685;-76
2023/06/06 12:24:33;;;;;;;4.70;4.30;;;26.70;99.90;;;;;;5071717;28;20765;-77
2023/06/06 12:27:01;;;;;;;4.65;4.07;;;26.80;99.90;;;;;;5059623;28;20710;-77
2023/06/06 12:29:30;;;;;;;4.25;3.85;;;27.20;99.90;;;;;;5069902;28;20290;-77
2023/06/06 12:32:16;;;;;;;3.90;3.60;;;27.40;99.90;;;;;;5060213;28;20199;-77
2023/06/06 12:34:48;;;;;;;4.50;4.20;;;28.00;99.90;;;;;;5068800;28;20218;-75
2023/06/06 12:37:15;;;;;;;6.43;4.13;;;28.00;99.90;;;;;;5065684;28;20565;-77
2023/06/06 12:39:43;;;;;;;3.20;3.00;;;27.80;99.90;;;;;;5066284;28;20214;-76
2023/06/06 12:42:14;;;;;;;5.38;3.78;;;27.80;99.90;;;;;;5072230;28;20237;-79
2023/06/06 12:44:42;;;;;;;4.60;3.53;;;27.50;99.90;;;;;;5072508;28;20755;-80
2023/06/06 12:47:09;;;;;;;4.40;4.00;;;27.30;99.90;;;;;;5072064;28;20716;-78
2023/06/06 12:49:36;;;;;;;3.70;3.40;;;27.10;99.90;;;;;;5069582;28;20242;-78
2023/06/06 12:52:06;;;;;;;3.85;3.50;;;27.20;99.90;;;;;;5092100;28;20206;-80
2023/06/06 12:54:39;;;;;;;3.42;3.13;;;27.70;99.90;;;;;;5077483;28;20268;-83
2023/06/06 12:57:08;;;;;;;4.07;3.25;;;27.80;99.90;;;;;;5058242;28;20205;-77